Time;durP1;ratioP1;P1;durP2;ratioP2;P2;SDS_P1;SDS_P2;PMS_P1;PMS_P2;Temp;Humidity;BMP_temperature;BMP_pressure;BME280_temperature;BME280_humidity;BME280_pressure;Samples;Min_cycle;Max_cycle;Signal;HPM_P1;HPM_P2
2021/08/18 17:31:29;;;;;;;5.50;2.70;;;25.40;53.40;;;;;;5508775;23;20058;-66
2021/08/18 17:33:54;;;;;;;3.50;2.50;;;25.30;54.00;;;;;;4976798;28;20049;-67
2021/08/18 17:36:20;;;;;;;4.72;2.67;;;25.20;53.90;;;;;;4975090;28;20023;-67
2021/08/18 17:38:46;;;;;;;4.47;2.58;;;25.10;54.40;;;;;;4975005;28;20471;-67
2021/08/18 17:41:12;;;;;;;4.05;2.63;;;25.10;53.80;;;;;;4975059;28;20065;-67
2021/08/18 17:43:38;;;;;;;11.38;3.05;;;25.10;55.80;;;;;;4974278;28;20070;-67
2021/08/18 17:46:04;;;;;;;4.78;2.80;;;25.00;54.00;;;;;;4974940;28;20031;-67
2021/08/18 17:48:30;;;;;;;6.38;2.40;;;25.00;54.10;;;;;;4975996;28;20034;-70
2021/08/18 17:50:56;;;;;;;10.93;3.25;;;25.00;55.70;;;;;;4974300;28;20506;-68
2021/08/18 17:53:22;;;;;;;6.57;2.83;;;24.80;55.20;;;;;;4974173;28;20034;-67
2021/08/18 17:55:48;;;;;;;7.85;2.85;;;24.80;55.50;;;;;;4975977;28;20053;-70
2021/08/18 17:58:15;;;;;;;8.40;2.80;;;24.60;54.90;;;;;;4976277;28;20078;-69
2021/08/18 18:00:41;;;;;;;6.60;2.88;;;24.60;56.00;;;;;;4974382;28;20368;-67
2021/08/18 18:03:08;;;;;;;12.40;3.28;;;24.30;55.30;;;;;;4976136;28;20035;-70
2021/08/18 18:05:35;;;;;;;6.53;3.08;;;24.30;56.60;;;;;;4974613;28;20050;-68
2021/08/18 18:08:01;;;;;;;9.65;3.00;;;24.30;56.80;;;;;;4975703;28;20034;-68
2021/08/18 18:10:27;;;;;;;6.95;3.10;;;24.30;56.80;;;;;;4975829;28;20034;-69
2021/08/18 18:12:53;;;;;;;8.07;2.83;;;24.30;57.60;;;;;;4975511;28;20395;-67
2021/08/18 18:15:19;;;;;;;6.68;2.72;;;24.30;58.30;;;;;;4975107;28;20027;-66
2021/08/18 18:17:45;;;;;;;4.78;4.18;;;24.30;57.40;;;;;;4974204;28;20031;-69
2021/08/18 18:20:14;;;;;;;12.25;6.30;;;23.90;56.50;;;;;;4975417;28;20094;-70
2021/08/18 18:22:40;;;;;;;21.00;7.15;;;;;;;;;;4975530;28;20035;-69
2021/08/18 18:25:06;;;;;;;10.07;7.28;;;;;;;;;;4975140;28;20058;-69
2021/08/18 18:27:33;;;;;;;18.90;10.40;;;23.50;57.10;;;;;;4974154;28;20026;-69
2021/08/18 18:29:59;;;;;;;10.98;7.03;;;23.30;58.00;;;;;;4975025;28;20797;-69
2021/08/18 18:32:26;;;;;;;15.60;9.32;;;23.50;59.80;;;;;;4975117;28;20051;-67
2021/08/18 18:34:54;;;;;;;14.25;8.38;;;23.60;58.50;;;;;;4975211;28;20026;-67
2021/08/18 18:37:20;;;;;;;13.43;7.63;;;23.60;59.30;;;;;;4975306;28;20069;-68
2021/08/18 18:39:46;;;;;;;12.93;8.32;;;23.60;59.70;;;;;;4973871;28;20030;-67
2021/08/18 18:42:12;;;;;;;11.45;7.53;;;;;;;;;;4970679;28;20046;-71
2021/08/18 18:44:38;;;;;;;16.90;7.97;;;23.60;59.80;;;;;;4974971;28;20031;-69
2021/08/18 18:47:04;;;;;;;16.08;8.00;;;23.60;59.20;;;;;;4975471;28;20357;-70
2021/08/18 18:49:30;;;;;;;18.70;6.95;;;23.60;60.70;;;;;;4975109;28;20082;-67
2021/08/18 18:51:56;;;;;;;9.95;5.50;;;23.50;60.40;;;;;;4973311;28;20088;-67
2021/08/18 18:54:22;;;;;;;11.52;5.05;;;23.40;61.00;;;;;;4974904;28;20026;-67
2021/08/18 18:56:48;;;;;;;7.07;4.38;;;23.40;59.80;;;;;;4975301;28;20408;-68
2021/08/18 18:59:14;;;;;;;10.07;5.55;;;23.30;59.80;;;;;;4974651;28;20031;-68
2021/08/18 19:01:40;;;;;;;15.23;5.35;;;23.20;59.60;;;;;;4974653;28;20110;-70
2021/08/18 19:04:05;;;;;;;9.40;4.85;;;23.10;61.00;;;;;;4975144;28;20565;-70
2021/08/18 19:06:31;;;;;;;20.15;4.53;;;23.20;62.20;;;;;;4973119;28;20174;-68
2021/08/18 19:08:57;;;;;;;9.73;4.05;;;23.20;60.40;;;;;;4974585;28;20096;-68
2021/08/18 19:11:23;;;;;;;15.25;4.63;;;23.10;60.10;;;;;;4973826;28;20039;-69
2021/08/18 19:13:49;;;;;;;8.90;3.75;;;23.00;60.40;;;;;;4974369;28;20467;-70
2021/08/18 19:16:15;;;;;;;6.55;3.92;;;22.80;60.40;;;;;;4974584;28;20391;-70
2021/08/18 19:18:41;;;;;;;8.80;4.30;;;22.90;62.00;;;;;;4974260;28;20027;-71
2021/08/18 19:21:08;;;;;;;6.10;3.85;;;23.00;62.40;;;;;;4973195;28;20888;-68
2021/08/18 19:23:35;;;;;;;7.47;4.28;;;22.80;62.00;;;;;;4972821;28;20027;-71
2021/08/18 19:26:01;;;;;;;9.05;4.18;;;23.00;63.20;;;;;;4974574;28;20443;-69
2021/08/18 19:28:27;;;;;;;10.90;4.75;;;23.30;63.40;;;;;;4974306;28;20037;-69
2021/08/18 19:30:53;;;;;;;7.90;4.47;;;23.40;62.00;;;;;;4973100;28;20043;-71
2021/08/18 19:33:19;;;;;;;9.07;4.53;;;23.20;62.20;;;;;;4972684;28;20047;-71
2021/08/18 19:35:45;;;;;;;11.27;4.82;;;23.00;62.10;;;;;;4974254;28;20034;-72
2021/08/18 19:38:12;;;;;;;17.55;5.55;;;22.90;61.70;;;;;;4974343;28;20034;-72
2021/08/18 19:40:39;;;;;;;13.32;5.50;;;22.60;62.50;;;;;;4974371;28;20073;-70
2021/08/18 19:43:06;;;;;;;17.70;5.50;;;22.40;62.80;;;;;;4974315;28;20081;-71
2021/08/18 19:45:33;;;;;;;12.40;5.07;;;22.30;63.90;;;;;;4972971;28;20027;-72
2021/08/18 19:47:58;;;;;;;15.10;5.28;;;22.40;64.20;;;;;;4973057;28;20058;-72
2021/08/18 19:50:28;;;;;;;9.15;5.25;;;22.30;63.30;;;;;;4974172;28;20047;-72
2021/08/18 19:52:55;;;;;;;9.55;4.75;;;22.30;64.10;;;;;;4974110;28;20073;-72
2021/08/18 19:55:21;;;;;;;9.98;5.82;;;22.50;65.80;;;;;;4974107;28;20038;-71
2021/08/18 19:57:47;;;;;;;14.93;6.00;;;22.40;66.30;;;;;;4972863;28;20027;-72
2021/08/18 20:00:13;;;;;;;15.50;5.88;;;22.40;63.80;;;;;;4972782;28;20360;-72
2021/08/18 20:02:40;;;;;;;11.32;6.35;;;22.20;64.00;;;;;;4972101;28;20023;-72
2021/08/18 20:05:07;;;;;;;15.23;6.82;;;22.00;63.90;;;;;;4972762;28;20031;-73
2021/08/18 20:07:33;;;;;;;12.32;5.07;;;21.90;64.20;;;;;;4973792;28;20027;-71
2021/08/18 20:09:59;;;;;;;12.95;5.13;;;21.90;65.40;;;;;;4974266;28;20094;-71
2021/08/18 20:12:25;;;;;;;12.15;5.53;;;22.30;65.60;;;;;;4973959;28;20093;-71
2021/08/18 20:14:51;;;;;;;18.25;6.15;;;22.40;65.10;;;;;;4974191;28;20109;-71
2021/08/18 20:17:16;;;;;;;20.02;6.13;;;22.50;64.00;;;;;;4974259;28;20440;-70
2021/08/18 20:19:42;;;;;;;12.25;4.75;;;22.50;64.20;;;;;;4973896;28;20034;-71
2021/08/18 20:22:08;;;;;;;14.52;6.20;;;22.50;64.30;;;;;;4974772;28;20031;-71
2021/08/18 20:24:35;;;;;;;21.70;6.10;;;22.40;63.20;;;;;;4977671;28;20022;-71
2021/08/18 20:27:01;;;;;;;17.00;5.57;;;22.30;63.40;;;;;;4976343;28;20031;-70
2021/08/18 20:29:27;;;;;;;14.32;4.70;;;22.10;63.60;;;;;;4977322;28;20054;-71
2021/08/18 20:31:53;;;;;;;11.27;4.40;;;21.80;63.70;;;;;;4977102;28;20062;-70
2021/08/18 20:34:19;;;;;;;14.23;6.13;;;21.60;64.50;;;;;;4977478;28;20035;-71
2021/08/18 20:36:45;;;;;;;9.13;4.32;;;21.40;64.30;;;;;;4977511;28;20034;-73
2021/08/18 20:39:14;;;;;;;14.20;4.40;;;21.20;64.90;;;;;;4976170;28;20031;-70
2021/08/18 20:41:41;;;;;;;8.90;4.28;;;21.20;64.80;;;;;;4977387;28;20038;-71
2021/08/18 20:44:12;;;;;;;9.40;4.28;;;21.20;65.40;;;;;;4975989;28;20101;-70
2021/08/18 20:46:39;;;;;;;6.68;4.07;;;21.40;65.70;;;;;;4977407;28;20463;-71
2021/08/18 20:49:09;;;;;;;9.75;3.83;;;21.10;65.40;;;;;;4977510;28;20387;-70
2021/08/18 20:51:35;;;;;;;11.97;4.10;;;20.90;66.00;;;;;;4977278;28;20035;-71
2021/08/18 20:54:01;;;;;;;10.70;4.30;;;21.00;67.00;;;;;;4977150;28;20143;-70
2021/08/18 20:56:28;;;;;;;14.98;4.40;;;20.90;67.40;;;;;;4975862;28;20121;-71
2021/08/18 20:58:55;;;;;;;11.70;4.25;;;20.90;66.80;;;;;;4976784;28;20034;-71
2021/08/18 21:01:21;;;;;;;7.18;3.30;;;20.70;67.10;;;;;;4977067;28;20030;-70
2021/08/18 21:03:47;;;;;;;9.57;3.95;;;21.10;67.50;;;;;;4975700;28;20031;-72
2021/08/18 21:06:13;;;;;;;12.32;4.22;;;20.90;66.40;;;;;;4977145;28;20094;-69
2021/08/18 21:08:39;;;;;;;8.98;3.60;;;20.90;67.20;;;;;;4975385;28;20051;-75
2021/08/18 21:11:05;;;;;;;8.63;3.92;;;21.10;67.90;;;;;;4976826;28;20364;-72
2021/08/18 21:13:30;;;;;;;6.13;3.63;;;21.40;67.60;;;;;;4975485;28;20042;-72
2021/08/18 21:15:58;;;;;;;9.45;3.88;;;21.10;66.60;;;;;;4976771;28;20041;-71
2021/08/18 21:18:24;;;;;;;9.23;4.07;;;20.80;67.40;;;;;;4976863;28;20031;-72
2021/08/18 21:20:49;;;;;;;10.15;4.53;;;20.70;67.90;;;;;;4977051;28;20533;-72
2021/08/18 21:23:15;;;;;;;8.98;4.22;;;20.50;68.00;;;;;;4975369;28;20026;-71
2021/08/18 21:25:43;;;;;;;12.48;4.65;;;20.50;68.50;;;;;;4976577;28;20486;-70
2021/08/18 21:28:08;;;;;;;8.60;4.90;;;20.40;68.60;;;;;;4972894;28;20023;-71
2021/08/18 21:30:34;;;;;;;16.10;4.85;;;20.30;68.70;;;;;;4976587;28;20026;-71
2021/08/18 21:33:00;;;;;;;11.38;5.43;;;20.30;68.90;;;;;;4976334;28;20510;-70
2021/08/18 21:35:26;;;;;;;13.93;5.68;;;20.20;69.00;;;;;;4975857;28;20031;-69
2021/08/18 21:37:52;;;;;;;13.93;5.93;;;20.20;69.70;;;;;;4976143;28;20398;-70
2021/08/18 21:40:18;;;;;;;12.95;5.40;;;20.20;69.80;;;;;;4976454;28;20038;-71
2021/08/18 21:42:44;;;;;;;18.05;5.40;;;20.10;71.20;;;;;;4976407;28;20031;-72
2021/08/18 21:45:10;;;;;;;15.60;5.82;;;20.10;70.40;;;;;;4976271;28;20113;-70
2021/08/18 21:47:38;;;;;;;12.48;5.47;;;20.50;69.80;;;;;;4976278;28;20023;-70
2021/08/18 21:50:05;;;;;;;13.27;5.18;;;20.20;69.50;;;;;;4976191;28;20031;-71
2021/08/18 21:52:31;;;;;;;19.38;5.40;;;20.20;70.90;;;;;;4975747;28;20078;-70
2021/08/18 21:54:57;;;;;;;10.75;6.07;;;20.00;69.50;;;;;;4974932;28;20384;-72
2021/08/18 21:57:22;;;;;;;18.77;5.90;;;19.80;70.10;;;;;;4976169;28;20027;-70
2021/08/18 21:59:48;;;;;;;12.75;6.30;;;19.70;69.90;;;;;;4976105;28;20019;-70
2021/08/18 22:02:14;;;;;;;29.55;6.60;;;;;;;;;;4974819;28;20035;-71
2021/08/18 22:04:40;;;;;;;16.83;6.85;;;19.40;69.80;;;;;;4976041;28;20027;-70
2021/08/18 22:07:06;;;;;;;12.73;6.60;;;19.30;70.70;;;;;;4974752;28;20035;-69
2021/08/18 22:09:32;;;;;;;10.32;5.82;;;19.20;71.60;;;;;;4975942;28;20134;-71
2021/08/18 22:11:59;;;;;;;14.02;6.10;;;19.10;72.50;;;;;;4975845;28;20035;-70
2021/08/18 22:14:24;;;;;;;16.70;6.50;;;19.00;71.80;;;;;;4974499;28;20027;-70
2021/08/18 22:16:50;;;;;;;13.40;7.30;;;19.00;72.60;;;;;;4974821;28;20138;-71
2021/08/18 22:19:16;;;;;;;12.25;6.00;;;18.80;71.90;;;;;;4976027;28;20058;-71
2021/08/18 22:21:42;;;;;;;14.15;6.43;;;18.80;72.50;;;;;;4975146;28;20030;-68
2021/08/18 22:24:08;;;;;;;22.08;6.28;;;18.70;72.90;;;;;;4975441;28;20027;-71
2021/08/18 22:26:34;;;;;;;20.83;6.03;;;18.60;72.90;;;;;;4975631;28;20033;-68
2021/08/18 22:29:00;;;;;;;24.08;7.00;;;18.60;73.30;;;;;;4975885;28;20640;-70
2021/08/18 22:31:26;;;;;;;13.38;6.35;;;18.50;73.70;;;;;;4973866;28;20059;-70
2021/08/18 22:33:52;;;;;;;15.32;6.28;;;18.50;73.50;;;;;;4975555;28;20058;-69
2021/08/18 22:36:18;;;;;;;14.25;6.57;;;18.40;73.70;;;;;;4975723;28;20058;-71
2021/08/18 22:38:44;;;;;;;17.83;6.38;;;18.40;74.00;;;;;;4975408;28;20069;-71
2021/08/18 22:41:12;;;;;;;13.68;5.75;;;18.40;74.00;;;;;;4975341;28;20042;-71
2021/08/18 22:43:38;;;;;;;13.63;6.57;;;18.30;74.40;;;;;;4975256;28;20031;-71
2021/08/18 22:46:04;;;;;;;20.08;6.07;;;18.30;74.50;;;;;;4974339;28;20375;-72
2021/08/18 22:48:31;;;;;;;12.88;5.65;;;18.30;75.10;;;;;;4975264;28;20109;-71
2021/08/18 22:50:57;;;;;;;10.50;5.47;;;18.20;75.30;;;;;;4974793;28;20035;-73
2021/08/18 22:53:23;;;;;;;19.17;6.07;;;;;;;;;;4975154;28;20042;-71
2021/08/18 22:55:49;;;;;;;15.43;5.63;;;;;;;;;;4973778;28;20031;-71
2021/08/18 22:58:16;;;;;;;13.90;5.93;;;;;;;;;;4975393;28;20027;-69
2021/08/18 23:00:43;;;;;;;15.50;5.63;;;18.20;76.10;;;;;;4974707;28;20034;-71
2021/08/18 23:03:10;;;;;;;10.20;5.05;;;17.80;77.30;;;;;;4973926;28;20378;-70
2021/08/18 23:05:36;;;;;;;10.20;4.65;;;;;;;;;;4973550;28;20031;-71
2021/08/18 23:08:03;;;;;;;17.33;6.25;;;;;;;;;;4974672;28;20475;-69
2021/08/18 23:10:29;;;;;;;10.23;4.72;;;;;;;;;;4974516;28;20035;-71
2021/08/18 23:12:55;;;;;;;14.48;5.90;;;;;;;;;;4973547;28;20146;-71
2021/08/18 23:15:25;;;;;;;16.80;6.38;;;;;;;;;;4974802;28;20074;-68
2021/08/18 23:17:51;;;;;;;14.18;6.03;;;;;;;;;;4975039;28;20109;-71
2021/08/18 23:20:18;;;;;;;14.50;5.97;;;;;;;;;;4973471;28;20023;-70
2021/08/18 23:22:44;;;;;;;10.65;5.50;;;;;;;;;;4974376;28;20490;-71
2021/08/18 23:25:12;;;;;;;16.63;5.95;;;;;;;;;;4974636;28;20045;-72
2021/08/18 23:27:39;;;;;;;12.52;6.28;;;;;;;;;;4973309;28;20081;-72
2021/08/18 23:30:06;;;;;;;12.73;5.45;;;;;;;;;;4974545;28;20023;-71
2021/08/18 23:32:33;;;;;;;16.73;6.00;;;;;;;;;;4974045;28;20142;-73
2021/08/18 23:35:00;;;;;;;13.73;5.97;;;;;;;;;;4974459;28;20026;-72
2021/08/18 23:37:26;;;;;;;12.57;6.18;;;;;;;;;;4973209;28;20031;-72
2021/08/18 23:39:52;;;;;;;13.07;6.22;;;;;;;;;;4974189;28;20391;-70
2021/08/18 23:42:18;;;;;;;12.00;5.75;;;;;;;;;;4974681;28;20487;-69
2021/08/18 23:44:44;;;;;;;18.67;6.25;;;;;;;;;;4973062;28;20065;-71
2021/08/18 23:47:10;;;;;;;14.07;6.03;;;;;;;;;;4973044;28;20041;-70
2021/08/18 23:49:37;;;;;;;11.00;6.05;;;;;;;;;;4974409;28;20027;-69
2021/08/18 23:52:03;;;;;;;12.15;6.13;;;;;;;;;;4972941;28;20386;-69
2021/08/18 23:54:30;;;;;;;14.75;5.50;;;;;;;;;;4974313;28;20427;-70
2021/08/18 23:56:56;;;;;;;10.90;5.97;;;;;;;;;;4973549;28;20113;-69
2021/08/18 23:59:22;;;;;;;12.60;6.20;;;;;;;;;;4977108;28;20587;-69
